地図

経路データ

SID SEASON NUMBER BASIN SUBBASIN NAME ISO_TIME NATURE LAT LON WMO_WIND WMO_PRES WMO_AGENCY TRACK_TYPE DIST2LAND LANDFALL IFLAG USA_AGENCY USA_ATCF_ID USA_LAT USA_LON USA_RECORD USA_STATUS USA_WIND USA_PRES USA_SSHS USA_R34_NE USA_R34_SE USA_R34_SW USA_R34_NW USA_R50_NE USA_R50_SE USA_R50_SW USA_R50_NW USA_R64_NE USA_R64_SE USA_R64_SW USA_R64_NW USA_POCI USA_ROCI USA_RMW USA_EYE TOKYO_LAT TOKYO_LON TOKYO_GRADE TOKYO_WIND TOKYO_PRES TOKYO_R50_DIR TOKYO_R50_LONG TOKYO_R50_SHORT TOKYO_R30_DIR TOKYO_R30_LONG TOKYO_R30_SHORT TOKYO_LAND CMA_LAT CMA_LON CMA_CAT CMA_WIND CMA_PRES HKO_LAT HKO_LON HKO_CAT HKO_WIND HKO_PRES NEWDELHI_LAT NEWDELHI_LON NEWDELHI_GRADE NEWDELHI_WIND NEWDELHI_PRES NEWDELHI_CI NEWDELHI_DP NEWDELHI_POCI REUNION_LAT REUNION_LON REUNION_TYPE REUNION_WIND REUNION_PRES REUNION_TNUM REUNION_CI REUNION_RMW REUNION_R34_NE REUNION_R34_SE REUNION_R34_SW REUNION_R34_NW REUNION_R50_NE REUNION_R50_SE REUNION_R50_SW REUNION_R50_NW REUNION_R64_NE REUNION_R64_SE REUNION_R64_SW REUNION_R64_NW BOM_LAT BOM_LON BOM_TYPE BOM_WIND BOM_PRES BOM_TNUM BOM_CI BOM_RMW BOM_R34_NE BOM_R34_SE BOM_R34_SW BOM_R34_NW BOM_R50_NE BOM_R50_SE BOM_R50_SW BOM_R50_NW BOM_R64_NE BOM_R64_SE BOM_R64_SW BOM_R64_NW BOM_ROCI BOM_POCI BOM_EYE BOM_POS_METHOD BOM_PRES_METHOD NADI_LAT NADI_LON NADI_CAT NADI_WIND NADI_PRES WELLINGTON_LAT WELLINGTON_LON WELLINGTON_WIND WELLINGTON_PRES DS824_LAT DS824_LON DS824_STAGE DS824_WIND DS824_PRES TD9636_LAT TD9636_LON TD9636_STAGE TD9636_WIND TD9636_PRES TD9635_LAT TD9635_LON TD9635_WIND TD9635_PRES TD9635_ROCI NEUMANN_LAT NEUMANN_LON NEUMANN_CLASS NEUMANN_WIND NEUMANN_PRES MLC_LAT MLC_LON MLC_CLASS MLC_WIND MLC_PRES USA_GUST BOM_GUST BOM_GUST_PER REUNION_GUST REUNION_GUST_PER USA_SEAHGT USA_SEARAD_NE USA_SEARAD_SE USA_SEARAD_SW USA_SEARAD_NW STORM_SPEED STORM_DIR
1933175N15125 1933 19 WP MM NOT_NAMED 1933-06-23 21:00:00 NR 15.3000 124.600 main 149 147 __________O___ -1 15.3000 124.600 2 16 289
1933175N15125 1933 19 WP MM NOT_NAMED 1933-06-24 00:00:00 NR 15.5563 123.834 main 181 106 __________P___ -1 15.5563 123.834 2 16 289
1933175N15125 1933 19 WP MM NOT_NAMED 1933-06-24 03:00:00 NR 15.8091 123.063 main 106 24 __________P___ -1 15.8091 123.063 2 16 289
1933175N15125 1933 19 WP MM NOT_NAMED 1933-06-24 06:00:00 NR 16.0574 122.286 main 15 0 __________P___ -1 16.0574 122.286 2 16 288
1933175N15125 1933 19 WP MM NOT_NAMED 1933-06-24 09:00:00 NR 16.3000 121.500 main 0 0 __________O___ -1 16.3000 121.500 2 16 287
1933175N15125 1933 19 WP MM NOT_NAMED 1933-06-24 12:00:00 NR 16.5346 120.706 main 0 0 __________P___ -1 16.5346 120.706 2 16 287
1933175N15125 1933 19 WP MM NOT_NAMED 1933-06-24 15:00:00 NR 16.7525 119.925 main 48 48 __________P___ -1 16.7525 119.925 2 15 286
1933175N15125 1933 19 WP MM NOT_NAMED 1933-06-24 18:00:00 NR 16.9442 119.182 main 92 92 __________P___ -1 16.9442 119.182 2 14 284
1933175N15125 1933 19 WP MM NOT_NAMED 1933-06-24 21:00:00 NR 17.1000 118.500 main 164 164 __________O___ -1 17.1000 118.500 2 12 282
1933175N15125 1933 19 WP MM NOT_NAMED 1933-06-25 00:00:00 NR 17.1973 117.909 main 226 226 __________P___ -1 17.1973 117.909 2 11 279
1933175N15125 1933 19 WP MM NOT_NAMED 1933-06-25 03:00:00 NR 17.2632 117.381 main 278 278 __________P___ -1 17.2632 117.381 2 10 277
1933175N15125 1933 19 WP MM NOT_NAMED 1933-06-25 06:00:00 NR 17.3226 116.888 main 328 328 __________P___ -1 17.3226 116.888 2 9 278
1933175N15125 1933 19 WP MM NOT_NAMED 1933-06-25 09:00:00 NR 17.4000 116.400 main 382 382 __________O___ -1 17.4000 116.400 2 10 283
1933175N15125 1933 19 WP MM NOT_NAMED 1933-06-25 12:00:00 NR 17.5525 115.872 main 439 439 __________P___ -1 17.5525 115.872 2 11 288
1933175N15125 1933 19 WP MM NOT_NAMED 1933-06-25 15:00:00 NR 17.7221 115.343 main 500 443 __________P___ -1 17.7221 115.343 2 11 288
1933175N15125 1933 19 WP MM NOT_NAMED 1933-06-25 18:00:00 NR 17.8806 114.818 main 443 390 __________P___ -1 17.8806 114.818 2 10 286
1933175N15125 1933 19 WP MM NOT_NAMED 1933-06-25 21:00:00 NR 18.0000 114.300 main 390 344 __________O___ -1 18.0000 114.300 2 10 278
1933175N15125 1933 19 WP MM NOT_NAMED 1933-06-26 00:00:00 NR 18.0227 113.772 main 344 301 __________P___ -1 18.0227 113.772 2 10 270
1933175N15125 1933 19 WP MM NOT_NAMED 1933-06-26 03:00:00 NR 18.0074 113.254 main 301 257 __________P___ -1 18.0074 113.254 2 10 268
1933175N15125 1933 19 WP MM NOT_NAMED 1933-06-26 06:00:00 NR 17.9884 112.759 main 257 209 __________P___ -1 17.9884 112.759 2 9 270
1933175N15125 1933 19 WP MM NOT_NAMED 1933-06-26 09:00:00 NR 18.0000 112.300 main 209 172 __________O___ -1 18.0000 112.300 2 8 273
1933175N15125 1933 19 WP MM NOT_NAMED 1933-06-26 12:00:00 NR 18.0273 111.908 main 172 139 __________P___ -1 18.0273 111.908 2 7 278
1933175N15125 1933 19 WP MM NOT_NAMED 1933-06-26 15:00:00 NR 18.0988 111.548 main 131 99 __________P___ -1 18.0988 111.548 2 7 288
1933175N15125 1933 19 WP MM NOT_NAMED 1933-06-26 18:00:00 NR 18.2460 111.189 main 99 46 __________P___ -1 18.2460 111.189 2 8 299
1933175N15125 1933 19 WP MM NOT_NAMED 1933-06-26 21:00:00 NR 18.5000 110.800 main 46 0 __________O___ -1 18.5000 110.800 2 11 306
1933175N15125 1933 19 WP MM NOT_NAMED 1933-06-27 00:00:00 NR 18.8646 110.289 main 0 0 __________P___ -1 18.8646 110.289 2 13 310
1933175N15125 1933 19 WP MM NOT_NAMED 1933-06-27 03:00:00 NR 19.3364 109.750 main 0 0 __________P___ -1 19.3364 109.750 2 14 316
1933175N15125 1933 19 WP MM NOT_NAMED 1933-06-27 06:00:00 NR 19.8897 109.236 main 15 15 __________P___ -1 19.8897 109.236 2 15 323
1933175N15125 1933 19 WP MM NOT_NAMED 1933-06-27 09:00:00 NR 20.5000 108.800 main 94 39 __________O___ -1 20.5000 108.800 2 16 330
1933175N15125 1933 19 WP MM NOT_NAMED 1933-06-27 12:00:00 NR 21.2373 108.401 main 39 0 __________P___ -1 21.2373 108.401 2 16 337
1933175N15125 1933 19 WP MM NOT_NAMED 1933-06-27 15:00:00 NR 22.0058 108.101 main 0 0 __________P___ -1 22.0058 108.101 2 15 344
1933175N15125 1933 19 WP MM NOT_NAMED 1933-06-27 18:00:00 NR 22.6964 107.950 main 0 0 __________P___ -1 22.6964 107.950 2 12 355
1933175N15125 1933 19 WP MM NOT_NAMED 1933-06-27 21:00:00 NR 23.2000 108.000 main 0 0 __________O___ -1 23.2000 108.000 2 8 25
1933175N15125 1933 19 WP MM NOT_NAMED 1933-06-28 00:00:00 NR 23.4137 108.305 main 0 0 __________P___ -1 23.4137 108.305 2 8 73
1933175N15125 1933 19 WP MM NOT_NAMED 1933-06-28 03:00:00 NR 23.4290 108.804 main 0 0 __________P___ -1 23.4290 108.804 2 10 96
1933175N15125 1933 19 WP MM NOT_NAMED 1933-06-28 06:00:00 NR 23.3046 109.400 main 0 0 __________P___ -1 23.3046 109.400 2 11 107
1933175N15125 1933 19 WP MM NOT_NAMED 1933-06-28 09:00:00 NR 23.1000 110.000 main 0 0 __________O___ -1 23.1000 110.000 2 11 116
1933175N15125 1933 19 WP MM NOT_NAMED 1933-06-28 12:00:00 NR 22.8088 110.483 main 0 0 __________P___ -1 22.8088 110.483 2 11 126
1933175N15125 1933 19 WP MM NOT_NAMED 1933-06-28 15:00:00 NR 22.4722 110.949 main 0 0 __________P___ -1 22.4722 110.949 2 10 126
1933175N15125 1933 19 WP MM NOT_NAMED 1933-06-28 18:00:00 NR 22.1995 111.390 main 0 0 __________P___ -1 22.1995 111.390 2 9 115
1933175N15125 1933 19 WP MM NOT_NAMED 1933-06-28 21:00:00 NR 22.1000 111.800 main 0 0 __________O___ -1 22.1000 111.800 2 7 83
1933175N15125 1933 19 WP MM NOT_NAMED 1933-06-29 00:00:00 NR 22.2923 112.177 main 0 0 __________P___ -1 22.2923 112.177 2 9 50
1933175N15125 1933 19 WP MM NOT_NAMED 1933-06-29 03:00:00 NR 22.6669 112.528 main 0 0 __________P___ -1 22.6669 112.528 2 11 36
1933175N15125 1933 19 WP MM NOT_NAMED 1933-06-29 06:00:00 NR 23.1580 112.866 main 0 0 __________P___ -1 23.1580 112.866 2 12 31
1933175N15125 1933 19 WP MM NOT_NAMED 1933-06-29 09:00:00 NR 23.7000 113.200 main 0 0 __________O___ -1 23.7000 113.200 2 12 30
1933175N15125 1933 19 WP MM NOT_NAMED 1933-06-29 12:00:00 NR 24.1883 113.519 main 0 0 __________P___ -1 24.1883 113.519 2 12 30
1933175N15125 1933 19 WP MM NOT_NAMED 1933-06-29 15:00:00 NR 24.7113 113.842 main 0 0 __________P___ -1 24.7113 113.842 2 12 30
1933175N15125 1933 19 WP MM NOT_NAMED 1933-06-29 18:00:00 NR 25.2537 114.194 main 0 0 __________P___ -1 25.2537 114.194 2 13 32
1933175N15125 1933 19 WP MM NOT_NAMED 1933-06-29 21:00:00 NR 25.8000 114.600 main 0 0 __________O___ -1 25.8000 114.600 2 13 36
1933175N15125 1933 19 WP MM NOT_NAMED 1933-06-30 00:00:00 NR 26.3241 115.054 main 0 0 __________P___ -1 26.3241 115.054 2 14 40
1933175N15125 1933 19 WP MM NOT_NAMED 1933-06-30 03:00:00 NR 26.8484 115.568 main 0 0 __________P___ -1 26.8484 115.568 2 14 43
1933175N15125 1933 19 WP MM NOT_NAMED 1933-06-30 06:00:00 NR 27.3735 116.148 main 0 0 __________P___ -1 27.3735 116.148 2 15 46
1933175N15125 1933 19 WP MM NOT_NAMED 1933-06-30 09:00:00 NR 27.9000 116.800 main 0 0 __________O___ -1 27.9000 116.800 2 16 50
1933175N15125 1933 19 WP MM NOT_NAMED 1933-06-30 12:00:00 NR 28.3973 117.534 main 0 0 __________P___ -1 28.3973 117.534 2 17 54
1933175N15125 1933 19 WP MM NOT_NAMED 1933-06-30 15:00:00 NR 28.8984 118.336 main 0 0 __________P___ -1 28.8984 118.336 2 18 54
1933175N15125 1933 19 WP MM NOT_NAMED 1933-06-30 18:00:00 NR 29.4252 119.170 main 0 0 __________P___ -1 29.4252 119.170 2 18 53
1933175N15125 1933 19 WP MM NOT_NAMED 1933-06-30 21:00:00 NR 30.0000 120.000 main 0 0 __________O___ -1 30.0000 120.000 2 18 50
1933175N15125 1933 19 WP MM NOT_NAMED 1933-07-01 00:00:00 NR 30.6078 120.786 main 0 0 __________P___ -1 30.6078 120.786 2 19 47
1933175N15125 1933 19 WP MM NOT_NAMED 1933-07-01 03:00:00 NR 31.2709 121.564 main 0 0 __________P___ -1 31.2709 121.564 2 19 44
1933175N15125 1933 19 WP MM NOT_NAMED 1933-07-01 06:00:00 NR 31.9985 122.335 main 50 50 __________P___ -1 31.9985 122.335 2 20 40
1933175N15125 1933 19 WP MM NOT_NAMED 1933-07-01 09:00:00 NR 32.8000 123.100 main 158 158 __________O___ -1 32.8000 123.100 2 21 37
1933175N15125 1933 19 WP MM NOT_NAMED 1933-07-01 12:00:00 NR 33.6797 123.863 main 217 155 __________P___ -1 33.6797 123.863 2 22 35
1933175N15125 1933 19 WP MM NOT_NAMED 1933-07-01 15:00:00 NR 34.6212 124.630 main 155 85 __________P___ -1 34.6212 124.630 2 23 33
1933175N15125 1933 19 WP MM NOT_NAMED 1933-07-01 18:00:00 NR 35.6022 125.407 main 91 8 __________P___ -1 35.6022 125.407 2 24 33
1933175N15125 1933 19 WP MM NOT_NAMED 1933-07-01 21:00:00 NR 36.6000 126.200 main 8 __________O___ -1 36.6000 126.200 2 24 33

デジタル台風データ・検索

IBTrACS Databaseについて

本データベースは、米国NOAAが公開する1842年以降の世界の熱帯低気圧のベストトラックデータアーカイブInternational Best Track Archive for Climate Stewardship (IBTrACS)を、ウェブで閲覧しやすい形式に変換したものです。

最終更新日:2021-11-26